Time;durP1;ratioP1;P1;durP2;ratioP2;P2;SDS_P1;SDS_P2;PMS_P1;PMS_P2;Temp;Humidity;BMP_temperature;BMP_pressure;BME280_temperature;BME280_humidity;BME280_pressure;Samples;Min_cycle;Max_cycle;Signal;HPM_P1;HPM_P2
2021/01/06 00:01:59;;;;;;;2.95;2.65;;;20.80;40.00;;;;;;5012047;28;20091;-82
2021/01/06 00:04:25;;;;;;;4.28;2.30;;;20.80;40.00;;;;;;5003738;28;20030;-82
2021/01/06 00:06:50;;;;;;;3.83;3.00;;;20.80;40.00;;;;;;4996356;28;20404;-82
2021/01/06 00:09:16;;;;;;;2.28;1.85;;;20.80;40.00;;;;;;5014968;28;20522;-83
2021/01/06 00:11:42;;;;;;;4.90;2.10;;;20.70;40.00;;;;;;5027583;28;20014;-82
2021/01/06 00:14:09;;;;;;;4.22;2.15;;;20.70;40.00;;;;;;5008814;28;20100;-82
2021/01/06 00:16:34;;;;;;;4.68;2.70;;;20.70;40.00;;;;;;5014047;28;20057;-83
2021/01/06 00:19:00;;;;;;;1.98;1.88;;;20.70;40.00;;;;;;4998301;28;20037;-83
2021/01/06 00:21:26;;;;;;;2.70;2.30;;;20.60;40.00;;;;;;4996221;28;20048;-82
2021/01/06 00:23:52;;;;;;;1.95;1.75;;;20.60;40.00;;;;;;5010458;28;20030;-83
2021/01/06 00:26:17;;;;;;;4.65;1.67;;;20.60;40.00;;;;;;4995396;28;20022;-82
2021/01/06 00:28:43;;;;;;;2.85;2.13;;;20.60;40.20;;;;;;5007231;28;20026;-83
2021/01/06 00:31:09;;;;;;;2.15;1.95;;;20.60;40.00;;;;;;4986821;28;20026;-83
2021/01/06 00:33:36;;;;;;;2.95;1.92;;;20.60;40.00;;;;;;5012950;28;20526;-83
2021/01/06 00:36:06;;;;;;;2.22;1.70;;;20.60;40.00;;;;;;5012261;28;20083;-82
2021/01/06 00:38:32;;;;;;;2.38;2.00;;;20.60;40.00;;;;;;5026954;28;20077;-82
2021/01/06 00:40:58;;;;;;;2.30;2.10;;;20.50;40.00;;;;;;5004513;28;20034;-82
2021/01/06 00:43:24;;;;;;;2.45;1.73;;;20.50;40.00;;;;;;5004415;28;20022;-83
2021/01/06 00:45:50;;;;;;;1.52;1.42;;;20.50;40.00;;;;;;4990697;28;20484;-83
2021/01/06 00:48:16;;;;;;;1.63;1.25;;;20.50;40.00;;;;;;5012972;28;20022;-83
2021/01/06 00:50:42;;;;;;;2.08;1.83;;;20.50;40.10;;;;;;5012897;28;20030;-82
2021/01/06 00:53:14;;;;;;;3.40;2.15;;;20.40;40.00;;;;;;4997815;28;20427;-82
2021/01/06 00:55:39;;;;;;;2.03;1.85;;;20.50;40.00;;;;;;5013676;28;20041;-83
2021/01/06 00:58:05;;;;;;;2.05;1.58;;;20.40;40.00;;;;;;5009182;28;20473;-83
2021/01/06 01:00:31;;;;;;;1.60;1.30;;;20.40;40.00;;;;;;4989217;28;20054;-83
2021/01/06 01:02:57;;;;;;;2.75;1.23;;;20.40;40.10;;;;;;4995132;28;20037;-82
2021/01/06 01:05:28;;;;;;;2.10;1.48;;;20.40;40.10;;;;;;5009703;28;20046;-81
2021/01/06 01:07:54;;;;;;;2.10;1.57;;;20.40;40.10;;;;;;4999401;28;20057;-83
2021/01/06 01:10:21;;;;;;;2.35;1.40;;;20.40;40.10;;;;;;5029922;28;20034;-82
2021/01/06 01:12:50;;;;;;;1.60;1.35;;;20.30;40.00;;;;;;5014984;28;20049;-82
2021/01/06 01:15:23;;;;;;;3.63;1.38;;;20.30;40.00;;;;;;4994315;28;20086;-83
2021/01/06 01:17:49;;;;;;;2.50;1.10;;;20.30;40.00;;;;;;5014418;28;20056;-81
2021/01/06 01:20:16;;;;;;;2.03;1.17;;;20.30;40.00;;;;;;4995215;28;20444;-82
2021/01/06 01:22:46;;;;;;;1.45;1.20;;;20.30;40.00;;;;;;4998405;28;20061;-81
2021/01/06 01:25:29;;;;;;;1.80;1.60;;;20.30;40.10;;;;;;4999395;28;20054;-82
2021/01/06 01:27:56;;;;;;;1.50;1.25;;;20.30;40.10;;;;;;5001775;28;20025;-82
2021/01/06 01:30:24;;;;;;;1.38;1.23;;;20.20;40.00;;;;;;5017755;28;20037;-82
2021/01/06 01:32:50;;;;;;;1.30;1.00;;;20.20;40.00;;;;;;5014478;28;20034;-81
2021/01/06 01:35:24;;;;;;;1.55;0.93;;;20.20;40.00;;;;;;5016505;28;20049;-82
2021/01/06 01:37:50;;;;;;;2.08;1.17;;;20.20;40.10;;;;;;5015958;28;20682;-81
2021/01/06 01:40:30;;;;;;;1.50;1.00;;;20.20;40.10;;;;;;5022583;28;20057;-82
2021/01/06 01:43:18;;;;;;;1.80;1.08;;;20.20;40.10;;;;;;5021648;28;20036;-80
2021/01/06 01:45:46;;;;;;;1.67;0.80;;;20.20;40.00;;;;;;5012019;28;20514;-80
2021/01/06 01:48:28;;;;;;;1.33;1.05;;;20.10;39.90;;;;;;5024649;28;20053;-80
2021/01/06 01:50:57;;;;;;;1.52;0.80;;;20.10;40.00;;;;;;4981122;28;20031;-80
2021/01/06 01:53:39;;;;;;;1.65;1.35;;;20.10;39.90;;;;;;5013273;28;20042;-79
2021/01/06 01:56:07;;;;;;;;;;;20.10;39.90;;;;;;5005426;28;20041;-80
2021/01/06 01:58:35;;;;;;;1.42;1.00;;;20.10;39.90;;;;;;5004155;28;19925;-80
2021/01/06 02:01:02;;;;;;;1.00;0.65;;;20.10;39.80;;;;;;5000303;28;20400;-80
2021/01/06 02:03:36;;;;;;;1.27;0.90;;;20.10;40.00;;;;;;4992160;28;20030;-79
2021/01/06 02:06:23;;;;;;;1.80;1.17;;;20.00;39.90;;;;;;5006306;28;20050;-79
2021/01/06 02:09:18;;;;;;;2.75;0.98;;;20.00;40.00;;;;;;4980892;28;20531;-80
2021/01/06 02:12:04;;;;;;;0.93;0.70;;;20.00;40.00;;;;;;4988382;28;20018;-80
2021/01/06 02:14:39;;;;;;;1.50;0.52;;;20.00;40.00;;;;;;5013380;28;20072;-80
2021/01/06 02:17:10;;;;;;;1.20;1.00;;;20.00;39.80;;;;;;5012765;28;20034;-81
2021/01/06 02:19:45;;;;;;;1.17;0.60;;;20.00;39.90;;;;;;5015133;28;20026;-83
2021/01/06 02:22:18;;;;;;;1.75;0.70;;;20.00;39.70;;;;;;5001645;28;20496;-80
2021/01/06 02:24:45;;;;;;;1.90;0.82;;;20.00;39.70;;;;;;5030991;28;20025;-81
2021/01/06 02:27:11;;;;;;;1.55;0.82;;;20.00;39.70;;;;;;5023455;28;20034;-79
2021/01/06 02:29:38;;;;;;;1.20;0.57;;;19.90;39.80;;;;;;4998646;28;20037;-81
2021/01/06 02:32:05;;;;;;;0.77;0.40;;;19.90;39.80;;;;;;4992687;28;20034;-80
2021/01/06 02:34:30;;;;;;;0.90;0.60;;;19.90;39.70;;;;;;5002189;28;20124;-81
2021/01/06 02:36:57;;;;;;;1.15;0.60;;;19.90;39.70;;;;;;5031097;28;20420;-81
2021/01/06 02:39:23;;;;;;;2.78;0.50;;;19.90;39.80;;;;;;5023232;28;20108;-80
2021/01/06 02:41:49;;;;;;;1.08;0.60;;;19.90;39.60;;;;;;5014809;28;20061;-79
2021/01/06 02:44:16;;;;;;;2.03;0.70;;;19.90;39.80;;;;;;4997774;28;20026;-81
2021/01/06 02:46:42;;;;;;;0.80;0.40;;;19.90;39.80;;;;;;5006930;28;20029;-81
2021/01/06 02:49:09;;;;;;;0.70;0.40;;;19.80;39.80;;;;;;4998370;28;20030;-79
2021/01/06 02:51:47;;;;;;;1.23;0.50;;;19.80;39.70;;;;;;5007374;28;20100;-79
2021/01/06 02:54:17;;;;;;;1.48;0.60;;;19.80;39.60;;;;;;5006478;28;20120;-79
2021/01/06 02:56:44;;;;;;;1.42;0.40;;;19.80;39.80;;;;;;5011956;28;20129;-79
2021/01/06 02:59:13;;;;;;;1.40;0.45;;;19.80;39.70;;;;;;5013154;28;20038;-79
2021/01/06 03:01:41;;;;;;;0.73;0.38;;;19.80;39.70;;;;;;5006392;28;20117;-80
2021/01/06 03:04:11;;;;;;;0.90;0.60;;;19.80;39.80;;;;;;5016513;28;20487;-81
2021/01/06 03:06:54;;;;;;;1.30;0.60;;;19.70;39.30;;;;;;5012022;28;20033;-81
2021/01/06 03:09:26;;;;;;;1.08;0.47;;;19.70;39.70;;;;;;5007193;28;20149;-80
2021/01/06 03:11:52;;;;;;;;;;;19.80;39.80;;;;;;4995359;28;20034;-80
2021/01/06 03:14:18;;;;;;;0.90;0.47;;;19.70;39.70;;;;;;5013711;28;20390;-81
2021/01/06 03:16:44;;;;;;;0.88;0.40;;;19.70;39.60;;;;;;4981820;28;20030;-80
2021/01/06 03:19:11;;;;;;;1.25;0.47;;;19.70;39.70;;;;;;5010157;28;20113;-83
2021/01/06 03:21:39;;;;;;;0.98;0.30;;;19.70;39.70;;;;;;5005125;28;20100;-79
2021/01/06 03:24:07;;;;;;;1.25;0.30;;;19.70;39.60;;;;;;5000104;28;20026;-83
2021/01/06 03:26:34;;;;;;;0.80;0.30;;;19.70;39.70;;;;;;5009091;28;20088;-80
2021/01/06 03:29:00;;;;;;;1.23;0.45;;;19.70;39.70;;;;;;4988106;28;20022;-82
2021/01/06 03:31:42;;;;;;;0.88;0.43;;;19.70;39.70;;;;;;4995309;28;20044;-80
2021/01/06 03:34:35;;;;;;;0.90;0.47;;;19.70;39.80;;;;;;5014092;28;20133;-80
2021/01/06 03:37:52;;;;;;;0.95;0.45;;;19.70;39.70;;;;;;5004672;28;20092;-80
2021/01/06 03:40:35;;;;;;;0.82;0.43;;;19.60;39.40;;;;;;5003671;28;20038;-80
2021/01/06 03:43:03;;;;;;;1.25;0.40;;;19.60;39.60;;;;;;4980961;28;20026;-81
2021/01/06 03:45:29;;;;;;;0.82;0.32;;;19.60;39.40;;;;;;5010570;28;20048;-83
2021/01/06 03:48:10;;;;;;;1.40;0.38;;;19.60;39.50;;;;;;5010641;28;20345;-81
2021/01/06 03:50:40;;;;;;;0.60;0.30;;;19.60;39.40;;;;;;5011809;28;20037;-83
2021/01/06 03:53:27;;;;;;;0.65;0.28;;;19.60;39.50;;;;;;5012811;28;20030;-83
2021/01/06 03:56:05;;;;;;;0.55;0.20;;;19.60;39.30;;;;;;5008117;28;20094;-83
2021/01/06 03:58:44;;;;;;;0.90;0.50;;;19.60;39.30;;;;;;5015226;28;20080;-83
2021/01/06 04:01:28;;;;;;;0.95;0.47;;;19.60;39.50;;;;;;5007643;28;20064;-82
2021/01/06 04:03:58;;;;;;;0.70;0.40;;;19.60;39.90;;;;;;5024794;28;20415;-83
2021/01/06 04:06:28;;;;;;;0.90;0.32;;;19.60;39.40;;;;;;5014103;28;20041;-82
2021/01/06 04:08:56;;;;;;;0.57;0.30;;;19.60;39.70;;;;;;5000042;28;20403;-82
2021/01/06 04:11:27;;;;;;;0.63;0.40;;;19.50;39.50;;;;;;5001298;28;20030;-83
2021/01/06 04:13:53;;;;;;;0.95;0.30;;;19.50;39.70;;;;;;4990383;28;20042;-82
2021/01/06 04:16:19;;;;;;;0.90;0.40;;;19.50;39.60;;;;;;5001843;28;21542;-81
2021/01/06 04:18:44;;;;;;;0.50;0.20;;;19.50;39.80;;;;;;5010035;28;20030;-82
2021/01/06 04:21:12;;;;;;;0.88;0.38;;;19.50;39.60;;;;;;5024702;28;20041;-82
2021/01/06 04:23:38;;;;;;;0.70;0.30;;;19.50;39.60;;;;;;5001750;28;20032;-83
2021/01/06 04:26:04;;;;;;;0.60;0.30;;;19.50;39.50;;;;;;4996440;28;20512;-82
2021/01/06 04:28:35;;;;;;;0.63;0.20;;;19.50;39.50;;;;;;4983913;28;20109;-83
2021/01/06 04:31:18;;;;;;;2.05;0.20;;;19.50;40.20;;;;;;5012980;28;20038;-82
2021/01/06 04:33:54;;;;;;;0.60;0.30;;;19.40;39.60;;;;;;5005751;28;20133;-83
2021/01/06 04:36:25;;;;;;;0.50;0.20;;;19.40;39.50;;;;;;5015526;28;20022;-82
2021/01/06 04:38:52;;;;;;;;;;;19.40;39.60;;;;;;4995238;28;20045;-82
2021/01/06 04:41:22;;;;;;;0.63;0.20;;;19.40;39.50;;;;;;5011014;28;19921;-82
2021/01/06 04:43:55;;;;;;;0.85;0.22;;;19.40;39.70;;;;;;5030200;28;20029;-83
2021/01/06 04:46:45;;;;;;;0.60;0.20;;;19.40;39.60;;;;;;4993453;28;20034;-82
2021/01/06 04:49:42;;;;;;;0.50;0.25;;;19.40;39.50;;;;;;5027795;28;20025;-82
2021/01/06 04:52:32;;;;;;;0.52;0.20;;;19.40;39.40;;;;;;5037838;28;20033;-82
2021/01/06 04:55:20;;;;;;;0.68;0.30;;;19.40;39.40;;;;;;5021774;28;20100;-82
2021/01/06 04:58:14;;;;;;;0.70;0.28;;;19.40;39.50;;;;;;5008694;28;20026;-82
2021/01/06 05:01:21;;;;;;;0.95;0.20;;;19.40;39.70;;;;;;5016823;28;20038;-83
2021/01/06 05:04:08;;;;;;;0.35;0.20;;;19.40;39.40;;;;;;5005033;28;20064;-82
2021/01/06 05:06:55;;;;;;;0.60;0.28;;;19.40;39.40;;;;;;5010334;28;20042;-80
2021/01/06 05:09:28;;;;;;;0.63;0.30;;;19.30;39.50;;;;;;5004633;28;20099;-80
2021/01/06 05:12:01;;;;;;;0.52;0.32;;;19.30;39.50;;;;;;5000887;28;20061;-81
2021/01/06 05:14:34;;;;;;;0.50;0.30;;;19.40;39.50;;;;;;5015544;28;20108;-80
2021/01/06 05:17:00;;;;;;;0.60;0.28;;;19.30;39.40;;;;;;5014040;28;20105;-81
2021/01/06 05:19:31;;;;;;;0.90;0.20;;;19.30;39.50;;;;;;5034687;28;20061;-81
2021/01/06 05:21:59;;;;;;;0.82;0.30;;;19.30;39.40;;;;;;4995634;28;20277;-81
2021/01/06 05:24:43;;;;;;;0.50;0.20;;;19.30;39.70;;;;;;5010260;28;20433;-81
2021/01/06 05:27:26;;;;;;;1.50;0.30;;;19.30;39.30;;;;;;5021012;28;20102;-81
2021/01/06 05:30:00;;;;;;;0.52;0.22;;;19.30;39.50;;;;;;5009525;28;20048;-81
2021/01/06 05:32:51;;;;;;;0.40;0.20;;;19.30;40.10;;;;;;4989189;28;20022;-84
2021/01/06 05:35:21;;;;;;;0.45;0.17;;;19.30;39.40;;;;;;5013434;28;20042;-81
2021/01/06 05:38:05;;;;;;;0.60;0.20;;;19.30;39.50;;;;;;5016602;28;20032;-82
2021/01/06 05:40:34;;;;;;;0.50;0.20;;;19.30;39.50;;;;;;5012832;28;20057;-81
2021/01/06 05:43:04;;;;;;;0.60;0.20;;;19.30;39.40;;;;;;5004461;28;20120;-81
2021/01/06 05:45:54;;;;;;;0.75;0.30;;;19.30;39.50;;;;;;5011465;28;20113;-80
2021/01/06 05:48:36;;;;;;;0.40;0.10;;;19.30;39.60;;;;;;5005911;28;20139;-80
2021/01/06 05:51:31;;;;;;;0.80;0.30;;;19.20;39.40;;;;;;5017251;28;20156;-81
2021/01/06 05:54:34;;;;;;;1.17;0.20;;;19.20;39.40;;;;;;5012680;28;20030;-81
2021/01/06 05:57:50;;;;;;;0.45;0.20;;;19.20;39.60;;;;;;5024487;28;20042;-81
2021/01/06 06:00:23;;;;;;;0.60;0.20;;;19.20;39.60;;;;;;5004385;28;20054;-81
2021/01/06 06:03:23;;;;;;;0.60;0.22;;;19.20;39.60;;;;;;4996462;28;20030;-80
2021/01/06 06:06:07;;;;;;;0.55;0.15;;;19.20;39.50;;;;;;5013265;28;20395;-81
2021/01/06 06:09:01;;;;;;;0.43;0.20;;;19.20;40.00;;;;;;4996222;28;20100;-81
2021/01/06 06:11:49;;;;;;;0.40;0.20;;;19.10;39.60;;;;;;5001990;28;20057;-81
2021/01/06 06:14:33;;;;;;;0.55;0.20;;;19.10;39.50;;;;;;5012854;28;20129;-82
2021/01/06 06:17:17;;;;;;;0.30;0.10;;;19.10;39.60;;;;;;5015993;28;20462;-79
2021/01/06 06:20:07;;;;;;;0.45;0.20;;;19.10;40.10;;;;;;5026709;28;20033;-82
2021/01/06 06:22:42;;;;;;;0.43;0.20;;;19.30;40.20;;;;;;4999618;28;20026;-79
2021/01/06 06:25:29;;;;;;;0.43;0.20;;;19.40;40.00;;;;;;5012600;28;20400;-81
2021/01/06 06:28:22;;;;;;;0.40;0.20;;;19.50;39.80;;;;;;5010701;28;20570;-80
2021/01/06 06:31:26;;;;;;;0.60;0.15;;;19.60;39.60;;;;;;4994720;28;20061;-79
2021/01/06 06:33:58;;;;;;;0.40;0.10;;;19.80;39.50;;;;;;4984107;28;20042;-81
2021/01/06 06:36:27;;;;;;;0.30;0.10;;;19.90;39.30;;;;;;4983756;28;20037;-81
2021/01/06 06:38:54;;;;;;;0.50;0.20;;;20.00;39.20;;;;;;5022181;28;20018;-80
2021/01/06 06:41:22;;;;;;;0.30;0.10;;;20.00;39.10;;;;;;5019315;28;20034;-80
2021/01/06 06:44:26;;;;;;;0.95;0.20;;;20.10;39.10;;;;;;5000543;28;20492;-80
2021/01/06 06:46:57;;;;;;;0.50;0.15;;;20.10;39.00;;;;;;4988038;28;20033;-80
2021/01/06 06:49:41;;;;;;;0.50;0.20;;;20.10;38.90;;;;;;5015470;28;20053;-80
2021/01/06 06:52:17;;;;;;;0.22;0.10;;;20.20;39.00;;;;;;4994533;28;20621;-80
2021/01/06 06:55:02;;;;;;;1.00;0.20;;;20.20;38.90;;;;;;5005465;28;20385;-83
2021/01/06 06:57:42;;;;;;;0.43;0.15;;;20.20;38.90;;;;;;4995858;28;20276;-80
2021/01/06 07:00:18;;;;;;;0.20;0.10;;;20.20;38.90;;;;;;4996957;28;20132;-80
2021/01/06 07:03:02;;;;;;;0.50;0.10;;;20.20;38.90;;;;;;5010312;28;20029;-80
2021/01/06 07:05:31;;;;;;;0.40;0.20;;;20.30;38.90;;;;;;4985123;28;20492;-81
2021/01/06 07:08:03;;;;;;;0.30;0.10;;;20.30;38.80;;;;;;5006676;28;20026;-79
2021/01/06 07:10:38;;;;;;;0.57;0.15;;;20.30;38.80;;;;;;5005509;28;20026;-80
2021/01/06 07:13:09;;;;;;;0.40;0.20;;;20.40;38.80;;;;;;5023082;28;20495;-85
2021/01/06 07:15:42;;;;;;;0.47;0.10;;;20.40;38.80;;;;;;5001013;28;20053;-83
2021/01/06 07:18:32;;;;;;;0.30;0.10;;;20.40;38.80;;;;;;4988103;28;20038;-84
2021/01/06 07:21:10;;;;;;;0.50;0.10;;;20.40;38.80;;;;;;4997057;28;20405;-84
2021/01/06 07:23:46;;;;;;;0.70;0.20;;;20.30;38.80;;;;;;5010889;28;20033;-83
2021/01/06 07:26:18;;;;;;;0.30;0.10;;;20.30;38.90;;;;;;5000757;28;20075;-81
2021/01/06 07:28:44;;;;;;;0.73;0.13;;;20.30;39.00;;;;;;5019366;28;20400;-81
2021/01/06 07:31:23;;;;;;;0.50;0.10;;;20.20;39.10;;;;;;5011808;28;20537;-81
2021/01/06 07:33:57;;;;;;;0.50;0.10;;;20.20;39.20;;;;;;5014950;28;20089;-84
2021/01/06 07:36:31;;;;;;;0.40;0.10;;;20.20;39.30;;;;;;4986960;28;20069;-82
2021/01/06 07:38:57;;;;;;;0.40;0.13;;;20.10;39.30;;;;;;5004448;28;20030;-81
2021/01/06 07:41:25;;;;;;;0.50;0.20;;;20.10;39.80;;;;;;5027989;28;20060;-80
2021/01/06 07:44:17;;;;;;;1.60;0.10;;;20.10;39.30;;;;;;5003824;28;20061;-80
2021/01/06 07:47:15;;;;;;;0.80;0.17;;;20.00;39.20;;;;;;5003758;28;20209;-81
2021/01/06 07:49:58;;;;;;;0.47;0.20;;;20.00;39.20;;;;;;5018655;28;20042;-81
2021/01/06 07:52:50;;;;;;;1.10;0.22;;;20.00;39.10;;;;;;5017758;28;20034;-81
2021/01/06 07:55:52;;;;;;;1.27;0.30;;;20.00;38.90;;;;;;4991605;28;20472;-82
2021/01/06 07:58:26;;;;;;;0.60;0.20;;;19.90;38.80;;;;;;5014694;28;20091;-80
2021/01/06 08:00:55;;;;;;;1.40;0.40;;;20.00;39.00;;;;;;5012626;28;20041;-81
2021/01/06 08:03:57;;;;;;;1.10;0.45;;;20.00;39.10;;;;;;5031197;28;20030;-81
2021/01/06 08:06:49;;;;;;;1.95;0.30;;;20.00;39.20;;;;;;5017926;28;20036;-83
2021/01/06 08:09:30;;;;;;;1.88;0.40;;;20.00;39.60;;;;;;4995606;28;20510;-84
2021/01/06 08:11:56;;;;;;;0.90;0.50;;;20.10;39.40;;;;;;5009572;28;20404;-83
2021/01/06 08:14:31;;;;;;;1.15;0.30;;;20.20;39.70;;;;;;5002639;28;20329;-82
2021/01/06 08:17:02;;;;;;;0.50;0.30;;;20.20;39.70;;;;;;4996717;28;20144;-82
2021/01/06 08:19:36;;;;;;;3.65;0.40;;;20.20;39.90;;;;;;4992988;28;20056;-82
2021/01/06 08:22:22;;;;;;;0.95;0.30;;;20.20;39.90;;;;;;4997544;28;20060;-81
2021/01/06 08:25:11;;;;;;;2.97;0.30;;;20.20;40.00;;;;;;4998680;28;20042;-82
2021/01/06 08:27:36;;;;;;;0.85;0.40;;;20.20;40.00;;;;;;4989119;28;20018;-86
2021/01/06 08:30:31;;;;;;;0.70;0.25;;;20.20;40.00;;;;;;4998180;28;20485;-85
2021/01/06 08:33:04;;;;;;;0.40;0.20;;;20.30;40.20;;;;;;4991009;28;20389;-84
2021/01/06 08:35:36;;;;;;;0.90;0.30;;;20.40;40.10;;;;;;5009303;28;20388;-82
2021/01/06 08:38:02;;;;;;;0.98;0.32;;;20.40;40.10;;;;;;4989450;28;20398;-82
2021/01/06 08:40:31;;;;;;;1.15;0.50;;;20.50;40.00;;;;;;5012868;28;20022;-85
2021/01/06 08:42:59;;;;;;;2.42;0.52;;;20.60;39.90;;;;;;5003374;28;20018;-82
2021/01/06 08:45:30;;;;;;;4.88;0.45;;;20.70;39.80;;;;;;5016236;28;20022;-81
2021/01/06 08:47:56;;;;;;;2.22;0.50;;;20.80;39.70;;;;;;5019478;28;20014;-81
2021/01/06 08:50:30;;;;;;;1.10;0.50;;;20.90;39.50;;;;;;4989823;28;20022;-82
2021/01/06 08:53:02;;;;;;;1.25;0.30;;;20.90;39.40;;;;;;4992544;28;20619;-82
2021/01/06 08:55:41;;;;;;;1.05;0.43;;;21.00;39.30;;;;;;5007390;28;20038;-85
2021/01/06 08:58:11;;;;;;;0.95;0.52;;;21.00;39.30;;;;;;5024996;28;20030;-82
2021/01/06 09:00:38;;;;;;;2.05;0.30;;;21.00;39.20;;;;;;5009109;28;20046;-82
2021/01/06 09:03:07;;;;;;;0.80;0.30;;;21.10;39.30;;;;;;5014082;28;20065;-82
2021/01/06 09:06:00;;;;;;;0.65;0.30;;;21.00;39.20;;;;;;5015462;28;20021;-84
2021/01/06 09:08:29;;;;;;;1.38;0.52;;;21.00;39.20;;;;;;5014318;28;20030;-82
2021/01/06 09:11:04;;;;;;;1.90;0.70;;;20.90;39.20;;;;;;5019169;28;20749;-84
2021/01/06 09:13:36;;;;;;;4.07;0.90;;;20.90;39.10;;;;;;4982874;28;20109;-82
2021/01/06 09:16:09;;;;;;;;;;;20.90;39.00;;;;;;4994565;28;20027;-83
2021/01/06 09:18:48;;;;;;;2.03;0.57;;;20.90;38.90;;;;;;5024292;28;19917;-83
2021/01/06 09:21:31;;;;;;;1.98;0.93;;;21.00;38.90;;;;;;4997043;28;20037;-83
2021/01/06 09:24:10;;;;;;;1.40;0.40;;;21.00;38.80;;;;;;4984871;28;20534;-84
2021/01/06 09:26:38;;;;;;;1.40;0.70;;;21.00;38.70;;;;;;4985134;28;20113;-84
2021/01/06 09:29:12;;;;;;;0.93;0.43;;;21.00;38.70;;;;;;4998326;28;20041;-84
2021/01/06 09:31:49;;;;;;;1.45;0.70;;;21.00;38.70;;;;;;4996543;28;20479;-82
2021/01/06 09:34:18;;;;;;;1.85;0.68;;;21.00;38.70;;;;;;4995802;28;20035;-83
2021/01/06 09:36:46;;;;;;;3.65;0.70;;;21.00;38.70;;;;;;5007805;28;20049;-81
2021/01/06 09:39:38;;;;;;;1.33;0.52;;;20.90;38.80;;;;;;4996237;28;20124;-83
2021/01/06 09:42:04;;;;;;;;;;;20.90;38.80;;;;;;5026000;28;20034;-82
2021/01/06 09:44:31;;;;;;;2.45;0.65;;;20.90;38.80;;;;;;4990860;28;19957;-83
2021/01/06 09:47:01;;;;;;;4.18;0.85;;;20.90;38.80;;;;;;5015699;28;20045;-82
2021/01/06 09:49:33;;;;;;;1.38;0.43;;;20.90;39.00;;;;;;5002995;28;20026;-84
2021/01/06 09:52:02;;;;;;;;;;;20.90;38.90;;;;;;5017140;28;20041;-84
2021/01/06 09:54:28;;;;;;;1.30;0.80;;;20.90;39.20;;;;;;5003259;28;19929;-86
2021/01/06 09:56:55;;;;;;;1.23;0.65;;;20.80;39.20;;;;;;5004243;28;20401;-86
2021/01/06 09:59:30;;;;;;;1.17;0.73;;;20.80;39.30;;;;;;5002297;28;20022;-84
2021/01/06 10:02:05;;;;;;;1.92;0.82;;;20.80;39.40;;;;;;5002282;28;20022;-84
2021/01/06 10:04:40;;;;;;;1.83;1.05;;;20.80;39.50;;;;;;5018764;28;20018;-82
2021/01/06 10:07:17;;;;;;;2.75;0.95;;;20.80;39.60;;;;;;4997471;28;20121;-84
2021/01/06 10:09:47;;;;;;;3.15;1.17;;;20.80;39.80;;;;;;5008080;28;20399;-83
2021/01/06 10:12:42;;;;;;;1.08;0.68;;;20.80;39.80;;;;;;4998720;28;20035;-84
2021/01/06 10:15:18;;;;;;;1.55;1.10;;;20.80;39.70;;;;;;5014147;28;20038;-84
2021/01/06 10:18:18;;;;;;;2.25;0.50;;;20.70;39.70;;;;;;5006658;28;20144;-82
2021/01/06 10:20:49;;;;;;;1.90;1.23;;;20.70;39.70;;;;;;4989826;28;20058;-82
2021/01/06 10:23:35;;;;;;;1.50;1.03;;;20.60;40.00;;;;;;4987973;28;20023;-85
2021/01/06 10:26:15;;;;;;;2.40;0.90;;;20.60;40.00;;;;;;4987951;28;20619;-86
2021/01/06 10:28:43;;;;;;;1.65;0.90;;;20.60;40.00;;;;;;4998582;28;20050;-85
2021/01/06 10:31:08;;;;;;;1.50;0.82;;;20.70;40.00;;;;;;5031388;28;20554;-83
2021/01/06 10:33:55;;;;;;;1.88;0.65;;;20.70;39.90;;;;;;4994857;28;20049;-83
2021/01/06 10:36:57;;;;;;;0.93;0.63;;;20.60;39.90;;;;;;4997077;28;20492;-83
2021/01/06 10:39:26;;;;;;;;;;;20.50;40.00;;;;;;4989979;28;20045;-83
2021/01/06 10:41:59;;;;;;;2.15;0.93;;;20.50;40.10;;;;;;4994797;28;20001;-82
2021/01/06 10:44:47;;;;;;;3.53;0.82;;;20.40;40.10;;;;;;4987676;28;20116;-83
2021/01/06 10:47:31;;;;;;;2.83;0.63;;;20.40;40.10;;;;;;5009071;28;20026;-82
2021/01/06 10:49:56;;;;;;;1.65;0.85;;;20.40;40.00;;;;;;5014208;28;20037;-83
2021/01/06 10:52:25;;;;;;;2.10;0.98;;;20.40;40.10;;;;;;5004378;28;20031;-83
2021/01/06 10:54:57;;;;;;;1.25;0.73;;;20.40;40.10;;;;;;5020968;28;20026;-84
2021/01/06 10:57:25;;;;;;;3.33;0.90;;;20.30;40.00;;;;;;5010137;28;20081;-83
2021/01/06 11:00:10;;;;;;;2.25;0.57;;;20.30;40.00;;;;;;5009141;28;20034;-82
2021/01/06 11:02:48;;;;;;;1.00;0.63;;;20.40;39.80;;;;;;4994559;28;20023;-82
2021/01/06 11:05:21;;;;;;;1.40;0.70;;;20.60;39.60;;;;;;5015935;28;20053;-85
2021/01/06 11:08:11;;;;;;;2.15;0.40;;;20.70;39.50;;;;;;5008468;28;20049;-85
2021/01/06 11:11:01;;;;;;;1.40;0.80;;;21.00;39.00;;;;;;5013057;28;20199;-84
2021/01/06 11:14:04;;;;;;;1.95;0.82;;;21.10;38.70;;;;;;5015059;28;20080;-86
2021/01/06 11:17:10;;;;;;;1.65;0.90;;;21.30;38.50;;;;;;5012117;28;20483;-84
2021/01/06 11:19:46;;;;;;;1.73;0.47;;;21.40;38.40;;;;;;5020306;28;20109;-85
2021/01/06 11:22:17;;;;;;;1.45;0.55;;;21.40;38.10;;;;;;5006917;28;20581;-85
2021/01/06 11:24:51;;;;;;;;;;;21.30;38.40;;;;;;4994779;28;20037;-85
2021/01/06 11:28:08;;;;;;;2.25;0.50;;;21.30;38.60;;;;;;5006571;28;19909;-85
2021/01/06 11:30:40;;;;;;;3.53;0.40;;;21.20;37.60;;;;;;4981408;28;20121;-85
2021/01/06 11:33:14;;;;;;;1.23;0.65;;;21.10;37.40;;;;;;5011853;28;20393;-85
2021/01/06 11:36:07;;;;;;;2.35;0.88;;;21.00;38.00;;;;;;5002984;28;20080;-84
2021/01/06 11:38:41;;;;;;;1.42;0.85;;;21.00;38.20;;;;;;4999661;28;20069;-84
2021/01/06 11:41:11;;;;;;;2.83;0.73;;;21.00;38.20;;;;;;4990050;28;20034;-85
2021/01/06 11:43:49;;;;;;;1.52;0.65;;;21.00;38.60;;;;;;4999436;28;20515;-85
2021/01/06 11:46:51;;;;;;;2.15;0.60;;;21.10;38.70;;;;;;4998464;28;20022;-87
2021/01/06 11:49:19;;;;;;;1.75;0.73;;;21.20;38.80;;;;;;5005426;28;20337;-84
2021/01/06 11:52:19;;;;;;;1.95;0.70;;;21.20;39.00;;;;;;5015476;28;20613;-87
2021/01/06 11:54:49;;;;;;;3.75;0.73;;;21.20;39.00;;;;;;4984059;28;20061;-86
2021/01/06 11:57:30;;;;;;;1.88;0.60;;;21.20;39.30;;;;;;5004146;28;20062;-84
2021/01/06 12:00:11;;;;;;;1.40;0.40;;;21.20;39.60;;;;;;5024947;28;20090;-84
2021/01/06 12:03:07;;;;;;;1.27;0.70;;;21.20;39.80;;;;;;4998107;28;20069;-84
2021/01/06 12:05:57;;;;;;;0.90;0.60;;;21.20;39.80;;;;;;4984623;28;20057;-83
2021/01/06 12:08:48;;;;;;;3.53;0.50;;;21.20;39.90;;;;;;5007002;28;20435;-83
2021/01/06 12:11:28;;;;;;;1.05;0.60;;;21.20;40.00;;;;;;4997303;28;20488;-85
2021/01/06 12:14:23;;;;;;;3.85;0.63;;;21.10;40.00;;;;;;5005791;28;20026;-84
2021/01/06 12:16:55;;;;;;;1.33;0.50;;;21.10;40.10;;;;;;5014619;28;20026;-82
2021/01/06 12:19:33;;;;;;;2.78;0.40;;;21.10;40.10;;;;;;4992579;28;20045;-85
2021/01/06 12:22:02;;;;;;;3.20;0.63;;;21.10;40.10;;;;;;4997933;28;20432;-84
2021/01/06 12:24:30;;;;;;;1.55;0.63;;;21.10;40.10;;;;;;5005659;28;20033;-85
2021/01/06 12:27:26;;;;;;;1.13;0.55;;;21.00;40.10;;;;;;5016600;28;20026;-85
2021/01/06 12:30:29;;;;;;;3.83;0.43;;;21.00;40.20;;;;;;5014254;28;20037;-86
2021/01/06 12:33:16;;;;;;;0.68;0.40;;;21.00;40.20;;;;;;4982269;28;20056;-85
2021/01/06 12:35:45;;;;;;;1.88;0.60;;;21.00;40.20;;;;;;5015025;28;20030;-84
2021/01/06 12:38:19;;;;;;;0.93;0.50;;;21.00;40.10;;;;;;5010239;28;20040;-84
2021/01/06 12:41:03;;;;;;;1.05;0.65;;;21.00;40.20;;;;;;4985712;28;20066;-83
2021/01/06 12:43:57;;;;;;;1.25;0.65;;;21.00;40.20;;;;;;5012431;28;20026;-85
2021/01/06 12:46:30;;;;;;;1.65;0.65;;;20.90;40.30;;;;;;5011531;28;20539;-84
2021/01/06 12:49:10;;;;;;;1.42;0.55;;;21.00;40.10;;;;;;5012042;28;20030;-82
2021/01/06 12:51:42;;;;;;;2.35;0.80;;;21.00;40.20;;;;;;4998206;28;20034;-83
2021/01/06 12:54:17;;;;;;;1.90;0.70;;;20.90;40.20;;;;;;4997929;28;20498;-84
2021/01/06 12:56:48;;;;;;;2.03;0.57;;;20.90;40.20;;;;;;5010900;28;20044;-84
2021/01/06 12:59:18;;;;;;;0.80;0.50;;;20.90;40.10;;;;;;4997164;28;20053;-82
2021/01/06 13:02:01;;;;;;;1.48;0.60;;;20.90;40.20;;;;;;5031141;28;20396;-82
2021/01/06 13:04:55;;;;;;;1.10;0.60;;;20.90;40.10;;;;;;5019380;28;20030;-84
2021/01/06 13:07:31;;;;;;;1.08;0.80;;;20.90;40.30;;;;;;5022342;28;20079;-84
2021/01/06 13:10:23;;;;;;;1.92;0.70;;;20.90;40.30;;;;;;5037593;28;20022;-85
2021/01/06 13:13:19;;;;;;;3.50;0.70;;;20.90;40.40;;;;;;5026838;28;20025;-83
2021/01/06 13:15:57;;;;;;;1.27;0.63;;;20.80;40.40;;;;;;5010987;28;20025;-84
2021/01/06 13:18:47;;;;;;;0.77;0.50;;;20.80;40.40;;;;;;5016058;28;20459;-83
2021/01/06 13:21:27;;;;;;;3.10;0.60;;;20.80;40.50;;;;;;4997696;28;20053;-83
2021/01/06 13:23:56;;;;;;;1.85;0.68;;;20.80;40.60;;;;;;5004141;28;20097;-84
2021/01/06 13:26:36;;;;;;;1.48;0.70;;;20.80;40.40;;;;;;4991039;28;20118;-82
2021/01/06 13:29:37;;;;;;;1.23;0.60;;;20.90;40.90;;;;;;4992640;28;20030;-83
2021/01/06 13:32:40;;;;;;;1.20;0.60;;;21.00;40.20;;;;;;5006756;28;20042;-86
2021/01/06 13:35:23;;;;;;;1.77;0.57;;;21.10;40.10;;;;;;5016319;28;20065;-84
2021/01/06 13:38:08;;;;;;;0.90;0.45;;;21.20;40.00;;;;;;5016317;28;20045;-85